createdAt,value
2022-09-15T00:00:18.288Z,19.63
2022-09-15T00:02:45.310Z,20.23
2022-09-15T00:05:12.554Z,20.27
2022-09-15T00:07:39.119Z,19.58
2022-09-15T00:10:07.193Z,20.30
2022-09-15T00:12:34.043Z,20.08
2022-09-15T00:15:00.779Z,21.20
2022-09-15T00:17:28.374Z,20.83
2022-09-15T00:19:54.906Z,21.77
2022-09-15T00:22:21.501Z,20.90
2022-09-15T00:25:11.985Z,22.42
2022-09-15T00:27:38.379Z,21.60
2022-09-15T00:30:05.786Z,21.42
2022-09-15T00:32:32.147Z,21.58
2022-09-15T00:34:58.694Z,22.10
2022-09-15T00:37:25.807Z,23.10
2022-09-15T00:39:53.087Z,23.95
2022-09-15T00:42:21.678Z,24.67
2022-09-15T00:44:55.724Z,23.92
2022-09-15T00:47:36.269Z,23.15
2022-09-15T00:50:07.527Z,24.80
2022-09-15T00:52:42.178Z,23.23
2022-09-15T00:55:38.717Z,23.92
2022-09-15T00:58:20.000Z,23.27
2022-09-15T01:00:52.911Z,22.98
2022-09-15T01:03:19.499Z,23.38
2022-09-15T01:05:55.362Z,23.48
2022-09-15T01:08:34.369Z,23.08
2022-09-15T01:11:00.727Z,22.88
2022-09-15T01:13:29.555Z,23.77
2022-09-15T01:16:15.121Z,22.23
2022-09-15T01:18:51.233Z,22.80
2022-09-15T01:21:34.690Z,22.77
2022-09-15T01:24:17.060Z,23.08
2022-09-15T01:30:02.672Z,22.33
2022-09-15T01:32:51.013Z,23.60
2022-09-15T01:35:17.467Z,23.63
2022-09-15T01:37:48.123Z,23.65
2022-09-15T01:40:15.777Z,24.48
2022-09-15T01:42:43.863Z,22.85
2022-09-15T01:45:16.552Z,24.45
2022-09-15T01:47:43.777Z,24.25
2022-09-15T01:50:16.481Z,24.40
2022-09-15T01:52:45.022Z,24.50
2022-09-15T01:55:16.062Z,24.20
2022-09-15T01:57:42.825Z,23.92
2022-09-15T02:00:09.730Z,25.05
2022-09-15T02:02:39.652Z,23.38
2022-09-15T02:05:30.337Z,24.80
2022-09-15T02:08:05.073Z,22.88
2022-09-15T02:10:48.781Z,23.00
2022-09-15T02:13:39.653Z,23.17
2022-09-15T02:16:15.270Z,24.30
2022-09-15T02:18:51.096Z,22.85
2022-09-15T02:21:24.192Z,21.98
2022-09-15T02:23:54.300Z,22.80
2022-09-15T02:26:24.450Z,23.20
2022-09-15T02:28:52.698Z,22.02
2022-09-15T02:31:20.569Z,22.83
2022-09-15T02:33:54.841Z,24.30
2022-09-15T02:36:21.382Z,23.02
2022-09-15T02:38:53.530Z,23.55
2022-09-15T02:41:20.133Z,22.92
2022-09-15T02:43:49.104Z,23.15
2022-09-15T02:46:17.120Z,22.80
2022-09-15T02:48:43.776Z,22.63
2022-09-15T02:51:10.354Z,22.10
2022-09-15T02:53:36.782Z,22.95
2022-09-15T02:56:06.500Z,22.90
2022-09-15T02:58:38.831Z,22.35
2022-09-15T03:01:06.699Z,24.17
2022-09-15T03:03:33.452Z,23.48
2022-09-15T03:06:16.274Z,22.42
2022-09-15T03:08:51.308Z,22.48
2022-09-15T03:11:20.179Z,22.48
2022-09-15T03:13:47.242Z,23.42
2022-09-15T03:16:15.987Z,22.20
2022-09-15T03:18:42.693Z,22.20
2022-09-15T03:21:13.061Z,22.92
2022-09-15T03:23:40.491Z,23.02
2022-09-15T03:26:09.040Z,22.77
2022-09-15T03:28:36.542Z,25.55
2022-09-15T03:31:03.361Z,23.58
2022-09-15T03:33:29.938Z,24.75
2022-09-15T03:35:56.512Z,24.15
2022-09-15T03:38:23.140Z,24.08
2022-09-15T03:41:03.832Z,23.42
2022-09-15T03:43:31.682Z,23.45
2022-09-15T03:45:58.925Z,23.52
2022-09-15T03:48:31.022Z,23.17
2022-09-15T03:50:57.824Z,23.20
2022-09-15T03:53:24.650Z,22.05
2022-09-15T03:55:51.212Z,23.48
2022-09-15T03:58:18.669Z,23.42
2022-09-15T04:00:46.377Z,22.25
2022-09-15T04:03:13.200Z,22.65
2022-09-15T04:05:39.803Z,21.98
2022-09-15T04:08:06.181Z,22.00
2022-09-15T04:10:33.077Z,22.80
2022-09-15T04:12:59.622Z,23.00
2022-09-15T04:15:25.973Z,23.17
2022-09-15T04:17:52.325Z,21.83
2022-09-15T04:20:18.805Z,22.83
2022-09-15T04:22:45.230Z,22.23
2022-09-15T04:25:11.956Z,24.30
2022-09-15T04:27:38.831Z,23.90
2022-09-15T04:30:06.654Z,21.98
2022-09-15T04:32:33.039Z,22.67
2022-09-15T04:35:43.545Z,23.42
2022-09-15T04:38:10.388Z,22.67
2022-09-15T04:40:38.223Z,22.00
2022-09-15T04:43:05.006Z,23.88
2022-09-15T04:45:33.311Z,24.27
2022-09-15T04:48:00.800Z,23.42
2022-09-15T04:50:27.371Z,23.30
2022-09-15T04:52:54.013Z,24.00
2022-09-15T04:55:20.554Z,23.65
2022-09-15T04:57:47.719Z,22.10
2022-09-15T05:00:43.793Z,23.02
2022-09-15T05:03:11.120Z,21.55
2022-09-15T05:09:18.457Z,23.10
2022-09-15T05:12:28.357Z,23.17
2022-09-15T05:14:54.770Z,22.23
2022-09-15T05:17:25.030Z,21.73
2022-09-15T05:19:53.041Z,23.45
2022-09-15T05:22:19.417Z,22.35
2022-09-15T05:24:46.175Z,22.38
2022-09-15T05:27:12.582Z,24.45
2022-09-15T05:29:38.990Z,22.58
2022-09-15T05:32:05.392Z,23.08
2022-09-15T05:34:31.945Z,23.45
2022-09-15T05:36:58.325Z,22.38
2022-09-15T05:39:24.775Z,21.27
2022-09-15T05:41:51.264Z,22.48
2022-09-15T05:44:17.822Z,23.27
2022-09-15T05:46:44.482Z,24.17
2022-09-15T05:49:23.279Z,22.75
2022-09-15T05:51:49.838Z,23.27
2022-09-15T05:54:16.383Z,23.77
2022-09-15T05:56:42.916Z,21.80
2022-09-15T05:59:09.322Z,22.40
2022-09-15T06:01:35.847Z,23.45
2022-09-15T06:04:02.510Z,24.25
2022-09-15T06:06:31.491Z,23.33
2022-09-15T06:08:59.513Z,23.50
2022-09-15T06:11:30.732Z,24.25
2022-09-15T06:14:00.945Z,24.63
2022-09-15T06:16:27.632Z,23.60
2022-09-15T06:18:54.478Z,23.27
2022-09-15T06:21:23.102Z,23.40
2022-09-15T06:24:01.105Z,23.02
2022-09-15T06:26:28.149Z,22.27
2022-09-15T06:28:57.236Z,23.45
2022-09-15T06:31:25.572Z,22.63
2022-09-15T06:33:54.107Z,23.75
2022-09-15T06:36:22.409Z,24.30
2022-09-15T06:38:49.054Z,23.88
2022-09-15T06:41:16.085Z,23.65
2022-09-15T06:43:43.010Z,23.85
2022-09-15T06:46:14.981Z,23.02
2022-09-15T06:48:45.236Z,23.48
2022-09-15T06:51:15.442Z,22.80
2022-09-15T06:53:42.087Z,22.50
2022-09-15T06:56:11.124Z,24.98
2022-09-15T06:58:38.870Z,23.95
2022-09-15T07:01:10.776Z,24.42
2022-09-15T07:03:38.972Z,22.95
2022-09-15T07:06:09.229Z,21.90
2022-09-15T07:08:35.609Z,21.55
2022-09-15T07:11:02.200Z,21.10
2022-09-15T07:13:28.601Z,19.40
2022-09-15T07:16:00.835Z,20.20
2022-09-15T07:18:27.768Z,19.83
2022-09-15T07:20:59.081Z,19.35
2022-09-15T07:23:25.662Z,18.37
2022-09-15T07:26:36.869Z,18.90
2022-09-15T07:29:05.994Z,18.48
2022-09-15T07:31:34.376Z,18.30
2022-09-15T07:34:01.342Z,18.15
2022-09-15T07:36:28.825Z,18.30
2022-09-15T07:39:05.756Z,18.58
2022-09-15T07:41:32.619Z,18.27
2022-09-15T07:44:00.513Z,18.05
2022-09-15T07:46:29.598Z,17.35
2022-09-15T07:48:58.915Z,16.50
2022-09-15T07:51:26.108Z,17.17
2022-09-15T07:53:53.043Z,16.67
2022-09-15T07:56:20.397Z,14.88
2022-09-15T07:58:57.095Z,16.08
2022-09-15T08:01:23.514Z,16.98
2022-09-15T08:04:18.985Z,16.67
2022-09-15T08:06:45.607Z,15.45
2022-09-15T08:09:14.817Z,14.38
2022-09-15T08:12:05.258Z,14.55
2022-09-15T08:18:18.934Z,13.68
2022-09-15T08:20:55.517Z,13.57
2022-09-15T08:31:04.474Z,13.13
2022-09-15T08:33:31.192Z,13.25
2022-09-15T08:36:03.201Z,14.70
2022-09-15T08:38:29.649Z,14.48
2022-09-15T08:41:00.003Z,15.40
2022-09-15T08:43:27.921Z,14.27
2022-09-15T08:50:31.087Z,13.25
2022-09-15T08:53:03.639Z,12.30
2022-09-15T08:59:18.348Z,10.60
2022-09-15T09:01:44.745Z,10.77
2022-09-15T09:04:21.637Z,8.82
2022-09-15T09:07:14.793Z,9.13
2022-09-15T09:10:06.961Z,8.10
2022-09-15T09:12:41.014Z,6.20
2022-09-15T09:15:32.281Z,4.53
2022-09-15T09:21:41.613Z,4.50
2022-09-15T09:24:32.946Z,4.88
2022-09-15T09:26:59.378Z,4.35
2022-09-15T09:29:40.524Z,4.07
2022-09-15T09:35:54.032Z,3.13
2022-09-15T09:38:30.720Z,2.28
2022-09-15T09:41:01.923Z,2.20
2022-09-15T09:43:29.522Z,2.60
2022-09-15T09:45:56.428Z,2.42
2022-09-15T09:48:25.069Z,1.90
2022-09-15T09:50:51.626Z,1.70
2022-09-15T09:53:28.764Z,1.50
2022-09-15T09:56:16.124Z,1.98
2022-09-15T09:58:43.113Z,1.38
2022-09-15T10:01:12.224Z,1.63
2022-09-15T10:03:38.840Z,1.42
2022-09-15T10:06:16.170Z,1.38
2022-09-15T10:09:05.648Z,1.30
2022-09-15T10:11:57.396Z,2.20
2022-09-15T10:14:30.059Z,1.80
2022-09-15T10:17:04.465Z,1.75
2022-09-15T10:23:17.582Z,1.73
2022-09-15T10:25:58.717Z,1.80
2022-09-15T10:32:25.688Z,2.10
2022-09-15T10:38:36.965Z,2.22
2022-09-15T10:41:12.411Z,2.10
2022-09-15T10:44:15.836Z,2.38
2022-09-15T10:47:09.634Z,3.63
2022-09-15T10:49:48.996Z,2.47
2022-09-15T10:52:21.459Z,3.25
2022-09-15T10:55:36.809Z,2.50
2022-09-15T10:58:21.937Z,1.70
2022-09-15T11:01:14.464Z,2.10
2022-09-15T11:06:32.740Z,1.70
2022-09-15T11:09:12.995Z,1.50
2022-09-15T11:11:51.085Z,1.38
2022-09-15T11:18:20.125Z,1.10
2022-09-15T11:20:56.297Z,1.20
2022-09-15T11:23:32.779Z,2.67
2022-09-15T11:26:10.591Z,1.83
2022-09-15T11:28:47.311Z,1.23
2022-09-15T11:31:21.499Z,1.10
2022-09-15T11:33:58.674Z,1.73
2022-09-15T11:40:22.274Z,0.65
2022-09-15T11:43:01.113Z,0.82
2022-09-15T11:45:32.602Z,0.77
2022-09-15T11:48:06.176Z,1.10
2022-09-15T11:54:22.515Z,0.85
2022-09-15T12:00:41.629Z,1.45
2022-09-15T12:03:26.453Z,1.73
2022-09-15T12:09:33.745Z,1.40
2022-09-15T12:15:48.210Z,1.13
2022-09-15T12:18:39.347Z,2.40
2022-09-15T12:21:16.196Z,1.05
2022-09-15T12:27:29.614Z,1.35
2022-09-15T12:29:58.302Z,2.08
2022-09-15T12:36:34.680Z,0.90
2022-09-15T12:42:48.125Z,0.98
2022-09-15T12:49:02.296Z,0.98
2022-09-15T12:55:28.309Z,1.30
2022-09-15T12:57:58.218Z,1.13
2022-09-15T13:00:36.304Z,1.20
2022-09-15T13:03:04.962Z,0.98
2022-09-15T13:05:45.960Z,1.23
2022-09-15T13:08:36.196Z,1.00
2022-09-15T13:11:05.024Z,1.20
2022-09-15T13:13:39.324Z,2.03
2022-09-15T13:16:12.282Z,1.25
2022-09-15T13:22:41.231Z,2.05
2022-09-15T13:28:51.493Z,1.60
2022-09-15T13:40:46.389Z,1.60
2022-09-15T13:43:47.364Z,2.35
2022-09-15T13:46:32.677Z,2.00
2022-09-15T13:49:08.204Z,1.60
2022-09-15T13:51:35.200Z,1.50
2022-09-15T13:54:16.668Z,1.60
2022-09-15T13:56:59.276Z,1.63
2022-09-15T13:59:29.466Z,2.45
2022-09-15T14:01:56.834Z,1.83
2022-09-15T14:04:25.142Z,1.95
2022-09-15T14:07:00.168Z,1.20
2022-09-15T14:09:31.212Z,1.55
2022-09-15T14:12:03.109Z,1.60
2022-09-15T14:14:41.146Z,1.00
2022-09-15T14:17:25.059Z,1.52
2022-09-15T14:19:53.825Z,1.42
2022-09-15T14:22:20.122Z,1.45
2022-09-15T14:24:47.238Z,1.25
2022-09-15T14:27:21.042Z,1.67
2022-09-15T14:29:50.150Z,1.55
2022-09-15T14:32:17.538Z,1.30
2022-09-15T14:34:44.908Z,1.38
2022-09-15T14:37:14.716Z,1.17
2022-09-15T14:39:43.122Z,1.50
2022-09-15T14:42:22.111Z,1.67
2022-09-15T14:47:35.993Z,1.10
2022-09-15T14:50:21.111Z,1.48
2022-09-15T14:52:50.162Z,1.08
2022-09-15T14:55:28.171Z,1.30
2022-09-15T14:57:57.491Z,1.20
2022-09-15T15:00:27.443Z,1.10
2022-09-15T15:02:59.186Z,0.70
2022-09-15T15:05:40.565Z,0.80
2022-09-15T15:08:08.908Z,1.10
2022-09-15T15:10:36.247Z,0.90
2022-09-15T15:13:07.641Z,1.23
2022-09-15T15:15:34.465Z,0.90
2022-09-15T15:18:00.893Z,1.02
2022-09-15T15:20:30.341Z,0.95
2022-09-15T15:23:23.824Z,1.90
2022-09-15T15:25:51.164Z,1.23
2022-09-15T15:28:50.087Z,1.00
2022-09-15T15:31:19.374Z,1.38
2022-09-15T15:34:23.814Z,1.08
2022-09-15T15:36:50.211Z,0.90
2022-09-15T15:39:24.694Z,1.02
2022-09-15T15:42:04.490Z,1.20
2022-09-15T15:44:31.686Z,0.88
2022-09-15T15:47:13.389Z,1.13
2022-09-15T15:50:02.214Z,0.90
2022-09-15T15:52:26.172Z,0.93
2022-09-15T15:54:52.570Z,1.02
2022-09-15T15:57:27.041Z,0.82
2022-09-15T15:59:56.864Z,0.80
2022-09-15T16:02:23.905Z,1.10
2022-09-15T16:04:50.334Z,1.10
2022-09-15T16:07:19.240Z,1.02
2022-09-15T16:09:46.789Z,1.13
2022-09-15T16:12:13.288Z,2.22
2022-09-15T16:14:39.873Z,1.15
2022-09-15T16:17:06.544Z,1.52
2022-09-15T16:19:33.110Z,1.05
2022-09-15T16:22:01.571Z,1.08
2022-09-15T16:24:28.583Z,1.20
2022-09-15T16:26:55.193Z,1.17
2022-09-15T16:29:29.045Z,1.50
2022-09-15T16:31:55.472Z,1.30
2022-09-15T16:34:22.533Z,1.20
2022-09-15T16:36:48.930Z,1.70
2022-09-15T16:39:15.315Z,1.40
2022-09-15T16:41:41.816Z,1.13
2022-09-15T16:44:17.524Z,1.40
2022-09-15T16:46:44.011Z,1.40
2022-09-15T16:49:10.443Z,1.58
2022-09-15T16:51:36.839Z,1.23
2022-09-15T16:54:03.294Z,1.73
2022-09-15T16:56:29.690Z,1.80
2022-09-15T16:59:00.206Z,1.65
2022-09-15T17:01:27.061Z,1.10
2022-09-15T17:03:53.575Z,1.60
2022-09-15T17:06:21.934Z,1.55
2022-09-15T17:08:48.343Z,1.23
2022-09-15T17:11:17.183Z,1.52
2022-09-15T17:13:44.308Z,1.55
2022-09-15T17:16:11.836Z,1.88
2022-09-15T17:18:38.286Z,1.33
2022-09-15T17:21:04.744Z,1.33
2022-09-15T17:23:34.856Z,1.88
2022-09-15T17:26:04.674Z,1.40
2022-09-15T17:28:36.408Z,1.80
2022-09-15T17:31:40.108Z,1.58
2022-09-15T17:34:14.363Z,1.75
2022-09-15T17:36:40.865Z,1.63
2022-09-15T17:39:07.315Z,1.73
2022-09-15T17:41:33.777Z,1.20
2022-09-15T17:44:00.186Z,1.42
2022-09-15T17:46:26.626Z,3.65
2022-09-15T17:48:53.104Z,1.67
2022-09-15T17:51:19.520Z,1.67
2022-09-15T17:53:47.191Z,1.45
2022-09-15T17:56:13.675Z,1.85
2022-09-15T17:58:40.139Z,2.20
2022-09-15T18:01:06.618Z,1.33
2022-09-15T18:07:13.904Z,1.60
2022-09-15T18:09:40.404Z,3.25
2022-09-15T18:12:06.855Z,1.50
2022-09-15T18:14:33.558Z,1.65
2022-09-15T18:16:59.980Z,1.50
2022-09-15T18:19:26.410Z,1.80
2022-09-15T18:21:53.401Z,1.27
2022-09-15T18:24:19.806Z,1.60
2022-09-15T18:26:46.300Z,1.40
2022-09-15T18:29:13.117Z,1.20
2022-09-15T18:31:39.522Z,1.10
2022-09-15T18:34:06.061Z,1.00
2022-09-15T18:36:32.451Z,1.27
2022-09-15T18:39:00.702Z,1.27
2022-09-15T18:41:27.840Z,1.00
2022-09-15T18:43:54.312Z,1.40
2022-09-15T18:46:21.030Z,1.45
2022-09-15T18:48:47.967Z,1.20
2022-09-15T18:51:23.641Z,1.40
2022-09-15T18:53:54.020Z,1.40
2022-09-15T18:56:20.918Z,1.50
2022-09-15T18:58:47.286Z,1.08
2022-09-15T19:01:14.495Z,1.50
2022-09-15T19:03:43.994Z,1.25
2022-09-15T19:06:10.621Z,1.35
2022-09-15T19:08:37.037Z,1.90
2022-09-15T19:11:04.179Z,1.63
2022-09-15T19:13:30.610Z,1.17
2022-09-15T19:16:02.891Z,1.45
2022-09-15T19:18:29.623Z,1.40
2022-09-15T19:21:06.747Z,1.23
2022-09-15T19:27:19.584Z,1.40
2022-09-15T19:29:46.825Z,1.50
2022-09-15T19:32:16.683Z,1.30
2022-09-15T19:34:43.157Z,1.48
2022-09-15T19:41:11.735Z,1.50
2022-09-15T19:43:42.010Z,1.63
2022-09-15T19:46:12.663Z,1.80
2022-09-15T19:48:41.349Z,2.85
2022-09-15T19:51:12.602Z,1.55
2022-09-15T19:53:39.000Z,1.60
2022-09-15T19:56:05.654Z,1.77
2022-09-15T19:58:32.424Z,1.48
2022-09-15T20:00:59.239Z,1.77
2022-09-15T20:03:27.026Z,1.60
2022-09-15T20:05:57.036Z,1.60
2022-09-15T20:08:25.394Z,1.92
2022-09-15T20:10:52.322Z,1.17
2022-09-15T20:13:18.871Z,1.10
2022-09-15T20:15:58.452Z,1.50
2022-09-15T20:18:26.169Z,1.23
2022-09-15T20:20:53.086Z,0.75
2022-09-15T20:23:20.325Z,1.13
2022-09-15T20:26:00.982Z,1.00
2022-09-15T20:28:28.209Z,0.82
2022-09-15T20:31:24.537Z,0.77
2022-09-15T20:33:52.101Z,0.63
2022-09-15T20:36:30.320Z,0.75
2022-09-15T20:38:56.897Z,0.60
2022-09-15T20:45:11.322Z,1.27
2022-09-15T20:51:27.797Z,0.63
2022-09-15T20:53:55.758Z,1.95
2022-09-15T20:56:25.380Z,0.90
2022-09-15T20:58:53.168Z,1.00
2022-09-15T21:01:21.621Z,0.77
2022-09-15T21:03:48.151Z,0.95
2022-09-15T21:06:17.904Z,0.90
2022-09-15T21:08:44.667Z,0.98
2022-09-15T21:11:11.660Z,1.10
2022-09-15T21:13:40.288Z,1.10
2022-09-15T21:16:09.315Z,1.25
2022-09-15T21:18:38.190Z,1.25
2022-09-15T21:21:13.262Z,0.70
2022-09-15T21:23:41.786Z,0.93
2022-09-15T21:26:13.565Z,0.70
2022-09-15T21:28:41.148Z,1.85
2022-09-15T21:31:09.388Z,1.35
2022-09-15T21:33:36.555Z,1.20
2022-09-15T21:36:23.351Z,1.00
2022-09-15T21:38:51.365Z,1.40
2022-09-15T21:41:21.410Z,1.30
2022-09-15T21:43:48.550Z,0.90
2022-09-15T21:46:19.815Z,0.80
2022-09-15T21:48:47.237Z,0.90
2022-09-15T21:51:15.444Z,0.70
2022-09-15T21:53:42.982Z,1.17
2022-09-15T21:56:10.541Z,0.98
2022-09-15T21:58:42.436Z,0.93
2022-09-15T22:01:13.718Z,0.95
2022-09-15T22:03:42.195Z,1.05
2022-09-15T22:06:12.521Z,0.77
2022-09-15T22:08:39.737Z,0.80
2022-09-15T22:11:07.933Z,1.98
2022-09-15T22:13:37.634Z,0.80
2022-09-15T22:16:15.887Z,0.80
2022-09-15T22:18:42.873Z,0.75
2022-09-15T22:21:11.170Z,1.42
2022-09-15T22:23:38.217Z,1.02
2022-09-15T22:26:06.828Z,0.98
2022-09-15T22:28:33.271Z,1.00
2022-09-15T22:31:05.545Z,0.80
2022-09-15T22:33:32.076Z,0.90
2022-09-15T22:35:58.602Z,1.27
2022-09-15T22:38:27.282Z,1.45
2022-09-15T22:40:53.720Z,1.00
2022-09-15T22:43:20.219Z,0.90
2022-09-15T22:45:46.861Z,1.15
2022-09-15T22:48:13.493Z,1.17
2022-09-15T22:50:40.122Z,0.90
2022-09-15T22:53:06.641Z,0.75
2022-09-15T22:55:33.062Z,1.00
2022-09-15T22:57:59.484Z,2.60
2022-09-15T23:00:26.729Z,1.40
2022-09-15T23:02:53.235Z,1.23
2022-09-15T23:05:19.664Z,1.02
2022-09-15T23:07:46.062Z,1.23
2022-09-15T23:10:12.493Z,1.85
2022-09-15T23:12:38.888Z,1.10
2022-09-15T23:15:06.533Z,1.50
2022-09-15T23:17:34.330Z,1.75
2022-09-15T23:20:01.338Z,1.50
2022-09-15T23:22:27.749Z,2.42
2022-09-15T23:24:54.251Z,1.30
2022-09-15T23:27:20.696Z,1.40
2022-09-15T23:33:29.452Z,1.77
2022-09-15T23:35:55.862Z,1.60
2022-09-15T23:38:22.486Z,1.27
2022-09-15T23:40:50.482Z,1.58
2022-09-15T23:43:17.677Z,1.27
2022-09-15T23:45:45.157Z,1.30
2022-09-15T23:48:12.310Z,1.30
2022-09-15T23:50:39.500Z,2.92
2022-09-15T23:53:06.594Z,1.30
2022-09-15T23:55:33.150Z,1.50
2022-09-15T23:57:59.730Z,1.48
